Time;durP1;ratioP1;P1;durP2;ratioP2;P2;SDS_P1;SDS_P2;PMS_P1;PMS_P2;Temp;Humidity;BMP_temperature;BMP_pressure;BME280_temperature;BME280_humidity;BME280_pressure;Samples;Min_cycle;Max_cycle;Signal;HPM_P1;HPM_P2
2024/02/25 00:01:03;;;;;;;9.85;4.72;;;7.60;61.80;;;;;;5073387;28;20189;-67
2024/02/25 00:03:31;;;;;;;5.95;3.33;;;7.60;61.70;;;;;;5073911;28;20228;-67
2024/02/25 00:05:58;;;;;;;6.85;3.53;;;7.60;61.90;;;;;;5073688;28;20282;-67
2024/02/25 00:08:25;;;;;;;5.28;3.63;;;7.50;62.50;;;;;;5073530;28;20277;-68
2024/02/25 00:10:52;;;;;;;5.65;3.90;;;7.50;62.50;;;;;;5073782;28;20281;-67
2024/02/25 00:13:19;;;;;;;4.40;2.97;;;7.50;62.60;;;;;;5073814;28;20221;-69
2024/02/25 00:15:46;;;;;;;5.32;2.95;;;7.40;63.00;;;;;;5073687;28;20214;-67
2024/02/25 00:18:13;;;;;;;5.88;3.17;;;7.30;63.50;;;;;;5073496;28;20286;-68
2024/02/25 00:20:42;;;;;;;4.63;2.83;;;7.30;63.80;;;;;;5073854;28;20243;-68
2024/02/25 00:23:09;;;;;;;5.45;4.68;;;7.20;63.60;;;;;;5073624;28;20224;-68
2024/02/25 00:25:37;;;;;;;4.45;3.00;;;7.10;63.70;;;;;;5073677;28;20595;-68
2024/02/25 00:28:04;;;;;;;4.15;2.40;;;7.10;63.70;;;;;;5073578;28;20248;-68
2024/02/25 00:30:31;;;;;;;5.30;2.70;;;7.20;64.30;;;;;;5073283;28;20190;-68
2024/02/25 00:32:58;;;;;;;4.82;2.35;;;7.20;63.90;;;;;;5073704;28;20281;-68
2024/02/25 00:35:25;;;;;;;4.47;2.67;;;7.10;64.00;;;;;;5073461;28;20214;-68
2024/02/25 00:37:54;;;;;;;3.22;2.60;;;7.10;64.10;;;;;;5072794;28;20270;-68
2024/02/25 00:40:20;;;;;;;4.00;1.95;;;7.10;64.20;;;;;;5073169;28;20190;-69
2024/02/25 00:42:47;;;;;;;4.55;2.80;;;7.20;63.70;;;;;;5073718;28;20364;-69
2024/02/25 00:45:14;;;;;;;4.38;2.60;;;7.20;63.60;;;;;;5073498;28;20305;-69
2024/02/25 00:47:42;;;;;;;3.33;1.83;;;7.30;63.50;;;;;;5073431;28;20233;-69
2024/02/25 00:50:10;;;;;;;3.35;2.13;;;7.30;63.00;;;;;;5072296;28;20218;-69
2024/02/25 00:52:37;;;;;;;3.03;1.95;;;7.20;62.80;;;;;;5072983;28;20205;-69
2024/02/25 00:55:08;;;;;;;4.18;2.45;;;7.20;62.50;;;;;;5073536;28;20297;-68
2024/02/25 00:57:37;;;;;;;8.27;3.33;;;7.30;62.80;;;;;;5073232;28;20225;-69
2024/02/25 01:00:07;;;;;;;4.25;2.13;;;7.30;63.10;;;;;;5072349;28;20201;-69
2024/02/25 01:02:35;;;;;;;3.30;2.05;;;7.30;63.20;;;;;;5073356;28;20193;-69
2024/02/25 01:05:03;;;;;;;7.32;2.30;;;7.20;63.10;;;;;;5073477;28;20194;-68
2024/02/25 01:07:30;;;;;;;3.50;2.15;;;7.20;63.10;;;;;;5073085;28;20190;-68
2024/02/25 01:09:57;;;;;;;4.57;2.45;;;7.10;63.20;;;;;;5073162;28;20191;-68
2024/02/25 01:12:25;;;;;;;4.82;2.50;;;7.20;63.20;;;;;;5073033;28;20273;-68
2024/02/25 01:14:53;;;;;;;4.53;2.25;;;7.20;62.70;;;;;;5073036;28;20278;-68
2024/02/25 01:17:20;;;;;;;5.00;2.90;;;7.20;62.80;;;;;;5072756;28;20657;-68
2024/02/25 01:19:47;;;;;;;6.28;2.40;;;7.20;63.20;;;;;;5073184;28;20607;-68
2024/02/25 01:22:14;;;;;;;4.38;2.40;;;7.20;62.90;;;;;;5076280;28;20653;-69
2024/02/25 01:24:41;;;;;;;3.58;2.08;;;7.20;63.20;;;;;;5076614;28;20233;-69
2024/02/25 01:27:08;;;;;;;4.55;2.63;;;7.10;63.30;;;;;;5076887;28;20198;-68
2024/02/25 01:29:36;;;;;;;4.55;2.90;;;7.10;63.60;;;;;;5076850;28;20289;-68
2024/02/25 01:32:04;;;;;;;3.35;2.50;;;7.00;63.90;;;;;;5076331;28;20266;-68
2024/02/25 01:34:31;;;;;;;4.68;2.88;;;6.90;64.30;;;;;;5076805;28;20201;-68
2024/02/25 01:36:58;;;;;;;4.80;2.70;;;6.90;64.90;;;;;;5076340;28;20309;-68
2024/02/25 01:39:25;;;;;;;4.28;2.97;;;6.80;65.00;;;;;;5076372;28;20723;-68
2024/02/25 01:41:53;;;;;;;3.60;2.45;;;6.80;65.10;;;;;;5076014;28;20229;-68
2024/02/25 01:44:20;;;;;;;3.30;2.80;;;6.80;65.20;;;;;;5076453;28;20237;-68
2024/02/25 01:46:49;;;;;;;5.78;3.05;;;6.80;65.20;;;;;;5076669;28;20229;-69
2024/02/25 01:49:19;;;;;;;6.78;2.65;;;6.80;65.60;;;;;;5076160;28;20191;-68
2024/02/25 01:51:48;;;;;;;4.10;2.70;;;6.70;65.70;;;;;;5076522;28;20185;-68
2024/02/25 01:54:16;;;;;;;4.38;2.40;;;6.70;65.40;;;;;;5076386;28;20186;-68
2024/02/25 01:56:44;;;;;;;3.83;2.00;;;6.70;65.60;;;;;;5075818;28;20218;-68
2024/02/25 01:59:11;;;;;;;4.65;2.80;;;6.60;65.90;;;;;;5076488;28;20194;-68
2024/02/25 02:01:39;;;;;;;4.95;2.70;;;6.60;66.40;;;;;;5075977;28;20226;-68
2024/02/25 02:04:07;;;;;;;4.53;2.78;;;6.50;66.60;;;;;;5076013;28;20544;-68
2024/02/25 02:06:34;;;;;;;5.32;2.45;;;6.50;66.80;;;;;;5076583;28;20225;-68
2024/02/25 02:09:02;;;;;;;4.63;2.97;;;6.50;67.00;;;;;;5076299;28;20186;-69
2024/02/25 02:11:29;;;;;;;4.15;2.83;;;6.50;67.00;;;;;;5076140;28;20198;-68
2024/02/25 02:13:56;;;;;;;3.97;2.35;;;6.50;66.90;;;;;;5075766;28;20190;-68
2024/02/25 02:16:25;;;;;;;7.00;2.92;;;6.50;66.80;;;;;;5076108;28;20210;-69
2024/02/25 02:18:52;;;;;;;5.68;2.50;;;6.60;66.80;;;;;;5075633;28;20197;-69
2024/02/25 02:21:23;;;;;;;3.88;1.95;;;6.70;66.20;;;;;;5075291;28;20277;-68
2024/02/25 02:23:53;;;;;;;6.95;2.70;;;6.70;66.60;;;;;;5075618;28;20182;-68
2024/02/25 02:26:21;;;;;;;2.67;1.90;;;6.70;65.40;;;;;;5075751;28;20198;-68
2024/02/25 02:28:47;;;;;;;3.47;2.00;;;6.70;64.90;;;;;;5075612;28;20285;-69
2024/02/25 02:31:17;;;;;;;4.07;2.17;;;6.70;65.20;;;;;;5075469;28;20281;-69
2024/02/25 02:33:44;;;;;;;3.22;2.33;;;6.60;65.40;;;;;;5074490;28;20187;-69
2024/02/25 02:36:11;;;;;;;6.70;2.63;;;6.60;65.50;;;;;;5075586;28;20221;-69
2024/02/25 02:38:39;;;;;;;3.00;1.90;;;6.60;66.40;;;;;;5075565;28;20194;-69
2024/02/25 02:41:07;;;;;;;4.75;1.77;;;6.60;65.70;;;;;;5075149;28;20243;-68
2024/02/25 02:43:34;;;;;;;3.25;2.00;;;6.50;65.80;;;;;;5075602;28;20216;-68
2024/02/25 02:46:02;;;;;;;3.80;2.67;;;6.40;66.30;;;;;;5075338;28;20186;-68
2024/02/25 02:48:29;;;;;;;3.47;2.15;;;6.50;66.30;;;;;;5075036;28;20197;-68
2024/02/25 02:50:57;;;;;;;7.00;1.92;;;6.50;65.80;;;;;;5075349;28;20611;-68
2024/02/25 02:53:25;;;;;;;3.17;1.65;;;6.50;65.60;;;;;;5075269;28;20214;-69
2024/02/25 02:55:54;;;;;;;2.95;1.65;;;6.50;65.70;;;;;;5074133;28;20210;-68
2024/02/25 02:58:21;;;;;;;6.22;1.98;;;6.50;65.70;;;;;;5075223;28;20201;-68
2024/02/25 03:00:48;;;;;;;5.00;2.15;;;6.50;65.60;;;;;;5075194;28;20228;-68
2024/02/25 03:03:15;;;;;;;4.30;2.58;;;6.50;65.50;;;;;;5074803;28;20694;-68
2024/02/25 03:05:42;;;;;;;3.90;2.30;;;6.50;65.50;;;;;;5074937;28;20269;-69
2024/02/25 03:08:09;;;;;;;3.40;2.30;;;6.50;65.50;;;;;;5075190;28;20190;-69
2024/02/25 03:10:36;;;;;;;3.55;2.20;;;6.50;65.00;;;;;;5074930;28;20197;-69
2024/02/25 03:13:05;;;;;;;2.40;1.50;;;6.50;65.00;;;;;;5074767;28;20201;-69
2024/02/25 03:15:32;;;;;;;3.35;2.30;;;6.40;65.00;;;;;;5074111;28;20214;-69
2024/02/25 03:17:59;;;;;;;3.00;1.80;;;6.40;65.10;;;;;;5074916;28;20186;-70
2024/02/25 03:20:26;;;;;;;3.47;2.72;;;6.40;65.40;;;;;;5074666;28;20252;-69
2024/02/25 03:22:53;;;;;;;2.80;2.08;;;6.40;65.40;;;;;;5074663;28;20198;-69
2024/02/25 03:25:20;;;;;;;3.60;2.03;;;6.40;65.80;;;;;;5074270;28;20277;-69
2024/02/25 03:27:49;;;;;;;3.10;1.88;;;6.30;65.60;;;;;;5074674;28;20243;-68
2024/02/25 03:30:18;;;;;;;5.40;2.40;;;6.40;65.90;;;;;;5074201;28;20226;-69
2024/02/25 03:32:49;;;;;;;3.40;1.90;;;6.40;65.70;;;;;;5074575;28;20612;-67
2024/02/25 03:35:16;;;;;;;4.20;2.08;;;6.40;65.30;;;;;;5074281;28;20201;-67
2024/02/25 03:37:45;;;;;;;4.22;2.10;;;6.40;65.10;;;;;;5074203;28;20222;-68
2024/02/25 03:40:12;;;;;;;5.28;2.50;;;6.40;64.80;;;;;;5074440;28;20190;-68
2024/02/25 03:42:41;;;;;;;7.65;4.68;;;6.40;64.70;;;;;;5073549;28;20258;-68
2024/02/25 03:45:08;;;;;;;9.10;4.68;;;6.30;64.90;;;;;;5073038;28;20186;-68
2024/02/25 03:47:37;;;;;;;5.85;3.60;;;6.30;65.20;;;;;;5073254;28;20273;-68
2024/02/25 03:50:05;;;;;;;5.78;3.03;;;6.20;65.30;;;;;;5074239;28;20224;-68
2024/02/25 03:52:32;;;;;;;6.05;3.10;;;6.20;66.00;;;;;;5074130;28;20222;-68
2024/02/25 03:54:59;;;;;;;3.72;2.17;;;6.20;66.10;;;;;;5073688;28;20247;-69
2024/02/25 03:57:26;;;;;;;3.90;2.53;;;6.20;66.20;;;;;;5073649;28;20677;-70
2024/02/25 03:59:52;;;;;;;6.57;2.15;;;6.20;66.70;;;;;;5073968;28;20197;-69
2024/02/25 04:02:20;;;;;;;3.13;1.88;;;6.20;66.90;;;;;;5073683;28;20682;-69
2024/02/25 04:04:49;;;;;;;3.50;1.95;;;6.20;66.80;;;;;;5073682;28;20277;-67
2024/02/25 04:07:16;;;;;;;3.55;2.10;;;6.30;66.70;;;;;;5073718;28;20725;-69
2024/02/25 04:09:42;;;;;;;4.65;2.33;;;6.30;66.70;;;;;;5073865;28;20221;-69
2024/02/25 04:12:10;;;;;;;4.80;2.30;;;6.20;66.90;;;;;;5073995;28;20620;-69
2024/02/25 04:14:37;;;;;;;3.60;2.42;;;6.20;67.10;;;;;;5074488;28;20255;-67
2024/02/25 04:17:04;;;;;;;3.20;2.47;;;6.20;67.50;;;;;;5073363;28;20210;-67
2024/02/25 04:19:32;;;;;;;3.45;2.50;;;6.30;67.70;;;;;;5073420;28;20194;-68
2024/02/25 04:22:01;;;;;;;3.20;2.50;;;6.30;67.50;;;;;;5073784;28;20675;-67
2024/02/25 04:24:27;;;;;;;3.65;2.40;;;6.30;67.10;;;;;;5073363;28;20186;-67
2024/02/25 04:26:54;;;;;;;4.97;2.55;;;6.20;67.20;;;;;;5073751;28;20194;-67
2024/02/25 04:29:21;;;;;;;4.57;2.75;;;6.30;67.40;;;;;;5073638;28;20277;-67
2024/02/25 04:31:48;;;;;;;3.20;2.00;;;6.30;67.30;;;;;;5073542;28;20271;-67
2024/02/25 04:34:16;;;;;;;3.33;1.92;;;6.30;67.90;;;;;;5073337;28;20194;-68
2024/02/25 04:36:43;;;;;;;3.78;3.33;;;6.30;67.80;;;;;;5073478;28;20221;-68
2024/02/25 04:39:11;;;;;;;4.10;2.50;;;6.30;67.90;;;;;;5073585;28;20214;-67
2024/02/25 04:41:38;;;;;;;2.95;1.98;;;6.40;68.00;;;;;;5073017;28;20719;-67
2024/02/25 04:44:08;;;;;;;5.53;2.17;;;6.40;67.70;;;;;;5073591;28;20269;-67
2024/02/25 04:46:35;;;;;;;3.05;2.05;;;6.30;67.80;;;;;;5073776;28;20543;-67
2024/02/25 04:49:03;;;;;;;6.18;2.30;;;6.30;67.70;;;;;;5073740;28;20194;-67
2024/02/25 04:51:30;;;;;;;4.00;2.33;;;6.30;67.70;;;;;;5073531;28;20194;-67
2024/02/25 04:53:58;;;;;;;3.95;2.08;;;6.30;67.70;;;;;;5073450;28;20621;-67
2024/02/25 04:56:27;;;;;;;4.90;2.15;;;6.30;67.20;;;;;;5077160;28;20210;-67
2024/02/25 04:58:55;;;;;;;3.60;2.13;;;6.30;67.00;;;;;;5077534;28;20615;-67
2024/02/25 05:01:22;;;;;;;5.45;2.15;;;6.20;66.60;;;;;;5077424;28;20545;-68
2024/02/25 05:03:49;;;;;;;3.58;2.40;;;6.20;66.60;;;;;;5077451;28;20193;-68
2024/02/25 05:06:16;;;;;;;3.55;1.88;;;6.20;66.60;;;;;;5076970;28;20636;-69
2024/02/25 05:08:43;;;;;;;3.22;1.80;;;6.20;66.60;;;;;;5077324;28;20233;-68
2024/02/25 05:11:10;;;;;;;3.60;2.20;;;6.20;66.50;;;;;;5077031;28;20552;-69
2024/02/25 05:13:39;;;;;;;3.10;1.70;;;6.10;66.30;;;;;;5077010;28;20186;-68
2024/02/25 05:16:07;;;;;;;3.67;1.70;;;5.90;67.10;;;;;;5077378;28;20273;-68
2024/02/25 05:18:34;;;;;;;3.47;1.90;;;5.80;67.70;;;;;;5076498;28;20277;-68
2024/02/25 05:21:06;;;;;;;2.97;1.65;;;5.80;68.30;;;;;;5078406;28;20202;-68
2024/02/25 05:23:43;;;;;;;3.13;1.92;;;5.80;68.60;;;;;;5082798;28;20242;-68
2024/02/25 05:26:10;;;;;;;4.45;2.13;;;5.80;68.80;;;;;;5078866;28;20192;-68
2024/02/25 05:28:39;;;;;;;4.45;2.25;;;5.70;68.80;;;;;;5075779;28;20269;-68
2024/02/25 05:31:06;;;;;;;5.68;2.08;;;5.70;68.60;;;;;;5076867;28;20606;-68
2024/02/25 05:33:34;;;;;;;3.00;1.90;;;5.70;68.40;;;;;;5076821;28;20277;-68
2024/02/25 05:36:01;;;;;;;4.40;2.20;;;5.70;68.60;;;;;;5076645;28;20280;-68
2024/02/25 05:38:28;;;;;;;4.63;2.00;;;5.70;68.80;;;;;;5076237;28;20316;-68
2024/02/25 05:40:55;;;;;;;3.42;1.75;;;5.70;68.80;;;;;;5076425;28;20194;-68
2024/02/25 05:43:22;;;;;;;3.60;1.90;;;5.70;68.30;;;;;;5076085;28;20283;-68
2024/02/25 05:45:50;;;;;;;3.20;1.80;;;5.70;68.40;;;;;;5076225;28;20232;-68
2024/02/25 05:48:18;;;;;;;3.70;1.95;;;5.60;67.90;;;;;;5076183;28;20281;-68
2024/02/25 05:50:45;;;;;;;3.25;2.10;;;5.60;67.70;;;;;;5076249;28;20193;-68
2024/02/25 05:53:12;;;;;;;3.25;2.15;;;5.50;67.90;;;;;;5076150;28;20737;-68
2024/02/25 05:55:39;;;;;;;3.92;2.55;;;5.50;67.80;;;;;;5076148;28;20281;-68
2024/02/25 05:58:06;;;;;;;5.13;2.42;;;5.50;67.80;;;;;;5076039;28;20237;-68
2024/02/25 06:00:33;;;;;;;5.45;2.90;;;5.40;68.00;;;;;;5076339;28;20190;-68
2024/02/25 06:03:01;;;;;;;3.50;2.28;;;5.40;68.50;;;;;;5075847;28;20269;-68
2024/02/25 06:05:30;;;;;;;3.80;2.00;;;5.40;68.60;;;;;;5076260;28;20190;-68
2024/02/25 06:08:00;;;;;;;3.70;2.67;;;5.40;69.20;;;;;;5075367;28;20191;-68
2024/02/25 06:10:28;;;;;;;3.10;1.88;;;5.40;68.80;;;;;;5076142;28;20193;-68
2024/02/25 06:12:54;;;;;;;5.80;2.63;;;5.40;68.90;;;;;;5075446;28;20296;-68
2024/02/25 06:15:22;;;;;;;4.47;2.47;;;5.40;68.70;;;;;;5075648;28;20293;-68
2024/02/25 06:17:49;;;;;;;4.32;2.90;;;5.30;69.00;;;;;;5075675;28;20296;-68
2024/02/25 06:20:18;;;;;;;4.43;2.60;;;5.30;70.20;;;;;;5076076;28;20598;-68
2024/02/25 06:22:45;;;;;;;4.50;2.20;;;5.30;69.70;;;;;;5075608;28;20221;-68
2024/02/25 06:25:12;;;;;;;3.33;1.60;;;5.30;69.40;;;;;;5075271;28;20197;-68
2024/02/25 06:27:39;;;;;;;4.05;1.88;;;5.30;68.80;;;;;;5075832;28;20537;-68
2024/02/25 06:30:07;;;;;;;7.15;2.08;;;5.30;68.50;;;;;;5075576;28;20551;-68
2024/02/25 06:32:35;;;;;;;5.10;3.15;;;5.20;68.10;;;;;;5075489;28;20236;-68
2024/02/25 06:35:03;;;;;;;3.20;2.15;;;5.20;68.10;;;;;;5072310;28;20220;-68
2024/02/25 06:37:32;;;;;;;4.10;2.15;;;5.20;68.30;;;;;;5074028;28;20205;-68
2024/02/25 06:39:59;;;;;;;6.55;3.95;;;5.20;68.80;;;;;;5074173;28;20186;-69
2024/02/25 06:42:26;;;;;;;5.45;4.30;;;5.20;68.80;;;;;;5074723;28;20614;-68
2024/02/25 06:44:53;;;;;;;6.97;4.38;;;5.20;69.10;;;;;;5074434;28;20739;-68
2024/02/25 06:47:20;;;;;;;6.68;3.53;;;5.20;69.20;;;;;;5074262;28;20201;-68
2024/02/25 06:49:47;;;;;;;4.75;3.53;;;5.20;69.50;;;;;;5074186;28;20194;-68
2024/02/25 06:52:14;;;;;;;5.47;3.35;;;5.20;69.70;;;;;;5074501;28;20190;-68
2024/02/25 06:54:44;;;;;;;4.45;2.97;;;5.20;69.80;;;;;;5074688;28;20301;-68
2024/02/25 06:57:15;;;;;;;4.25;2.47;;;5.20;69.40;;;;;;5074401;28;20214;-68
2024/02/25 06:59:42;;;;;;;3.65;2.17;;;5.30;69.10;;;;;;5074058;28;20194;-68
2024/02/25 07:02:09;;;;;;;4.82;2.47;;;5.20;68.70;;;;;;5074492;28;20201;-68
2024/02/25 07:04:36;;;;;;;3.67;2.00;;;5.20;68.60;;;;;;5074503;28;20285;-69
2024/02/25 07:07:03;;;;;;;4.80;1.85;;;5.20;68.80;;;;;;5073939;28;20276;-69
2024/02/25 07:09:32;;;;;;;3.65;2.33;;;5.20;68.80;;;;;;5074026;28;20269;-68
2024/02/25 07:12:00;;;;;;;4.25;2.78;;;5.30;67.70;;;;;;5074378;28;20198;-68
2024/02/25 07:14:28;;;;;;;13.35;6.88;;;5.30;67.20;;;;;;5074197;28;20190;-68
2024/02/25 07:16:55;;;;;;;7.32;4.53;;;5.20;67.50;;;;;;5073854;28;20194;-68
2024/02/25 07:19:23;;;;;;;3.38;2.03;;;5.20;67.50;;;;;;5072085;28;20559;-68
2024/02/25 07:21:50;;;;;;;4.88;2.08;;;5.30;67.70;;;;;;5073022;28;20183;-69
2024/02/25 07:24:17;;;;;;;2.63;1.60;;;5.30;67.30;;;;;;5074138;28;20205;-68
2024/02/25 07:26:45;;;;;;;3.83;1.60;;;5.30;67.40;;;;;;5073541;28;20201;-68
2024/02/25 07:29:13;;;;;;;3.03;1.98;;;5.30;67.50;;;;;;5073883;28;20375;-68
2024/02/25 07:31:40;;;;;;;3.75;2.05;;;5.30;67.30;;;;;;5073708;28;20190;-68
2024/02/25 07:34:08;;;;;;;3.30;2.00;;;5.40;67.30;;;;;;5073262;28;20225;-68
2024/02/25 07:36:35;;;;;;;4.13;2.03;;;5.40;65.80;;;;;;5073495;28;20251;-68
2024/02/25 07:39:02;;;;;;;2.90;1.67;;;5.40;65.60;;;;;;5073674;28;20230;-68
2024/02/25 07:41:29;;;;;;;2.78;1.70;;;5.40;65.90;;;;;;5073137;28;20230;-68
2024/02/25 07:43:56;;;;;;;2.42;1.45;;;5.50;66.10;;;;;;5073572;28;20174;-69
2024/02/25 07:46:27;;;;;;;3.40;1.85;;;5.60;65.90;;;;;;5073168;28;20194;-69
2024/02/25 07:48:53;;;;;;;6.40;1.80;;;5.70;66.00;;;;;;5073576;28;20186;-68
2024/02/25 07:51:20;;;;;;;4.70;2.47;;;5.80;66.60;;;;;;5073561;28;20628;-68
2024/02/25 07:53:48;;;;;;;4.38;2.53;;;6.00;66.80;;;;;;5073279;28;20228;-68
2024/02/25 07:56:19;;;;;;;3.88;2.50;;;6.20;67.00;;;;;;5072996;28;20202;-68
2024/02/25 07:58:46;;;;;;;2.47;1.52;;;6.80;67.60;;;;;;5072893;28;20217;-68
2024/02/25 08:01:13;;;;;;;3.28;1.85;;;7.50;67.60;;;;;;5072970;28;20244;-69
2024/02/25 08:03:42;;;;;;;3.13;2.10;;;8.40;65.90;;;;;;5072897;28;20672;-69
2024/02/25 08:06:09;;;;;;;5.45;2.60;;;9.40;63.30;;;;;;5073180;28;20201;-69
2024/02/25 08:08:36;;;;;;;6.65;2.10;;;10.30;59.00;;;;;;5073034;28;20588;-69
2024/02/25 08:11:03;;;;;;;3.15;1.95;;;11.20;57.40;;;;;;5072582;28;20198;-69
2024/02/25 08:13:30;;;;;;;4.25;2.25;;;12.00;54.90;;;;;;5072380;28;20648;-69
2024/02/25 08:15:57;;;;;;;3.23;2.03;;;12.60;53.30;;;;;;5073114;28;20615;-69
2024/02/25 08:18:24;;;;;;;4.47;2.17;;;13.30;52.20;;;;;;5072755;28;20551;-69
2024/02/25 08:20:52;;;;;;;3.50;1.90;;;14.10;49.90;;;;;;5072187;28;20962;-69
2024/02/25 08:23:20;;;;;;;5.90;3.40;;;14.80;48.90;;;;;;5072933;28;20494;-69
2024/02/25 08:25:47;;;;;;;4.70;2.83;;;15.30;46.50;;;;;;5072802;28;20440;-70
2024/02/25 08:28:14;;;;;;;4.77;3.07;;;15.90;44.60;;;;;;5072515;28;20520;-69
2024/02/25 08:30:41;;;;;;;5.67;4.13;;;16.30;43.20;;;;;;5072418;28;20432;-70
2024/02/25 08:33:08;;;;;;;6.27;4.77;;;16.70;42.50;;;;;;5072486;28;20464;-70
2024/02/25 08:35:34;;;;;;;6.23;4.13;;;17.20;41.80;;;;;;5072489;28;20445;-70
2024/02/25 08:38:03;;;;;;;5.30;3.80;;;17.70;40.40;;;;;;5072457;28;20553;-69
2024/02/25 08:40:31;;;;;;;4.80;3.17;;;18.00;39.50;;;;;;5072607;28;20932;-70
2024/02/25 08:42:58;;;;;;;4.37;2.70;;;18.50;38.50;;;;;;5072066;28;20467;-69
2024/02/25 08:45:25;;;;;;;4.07;2.50;;;19.00;36.90;;;;;;5072371;28;20917;-69
2024/02/25 08:47:52;;;;;;;4.00;2.23;;;19.30;35.60;;;;;;5072683;28;20457;-69
2024/02/25 08:50:19;;;;;;;3.80;2.20;;;19.70;35.40;;;;;;5071063;28;20512;-70
2024/02/25 08:52:46;;;;;;;4.50;2.13;;;20.10;34.20;;;;;;5071724;28;20439;-70
2024/02/25 08:55:18;;;;;;;4.67;2.23;;;20.50;34.50;;;;;;5072125;28;20515;-70
2024/02/25 08:57:45;;;;;;;3.50;2.10;;;20.80;33.20;;;;;;5071921;28;20561;-70
2024/02/25 09:00:13;;;;;;;4.07;2.20;;;20.90;31.30;;;;;;5071175;28;20478;-68
2024/02/25 09:02:40;;;;;;;5.67;2.83;;;21.10;31.30;;;;;;5072360;28;20546;-68
2024/02/25 09:05:08;;;;;;;4.50;2.50;;;21.30;31.30;;;;;;5072295;28;20435;-68
2024/02/25 09:07:36;;;;;;;4.00;2.40;;;21.60;30.60;;;;;;5070517;28;20930;-70
2024/02/25 09:10:04;;;;;;;4.23;2.60;;;21.90;31.20;;;;;;5072054;28;20444;-69
2024/02/25 09:12:34;;;;;;;3.70;2.07;;;22.20;29.80;;;;;;5072200;28;20432;-70
2024/02/25 09:15:01;;;;;;;3.47;2.10;;;22.50;29.10;;;;;;5072254;28;20477;-70
2024/02/25 09:17:27;;;;;;;3.40;1.93;;;22.80;29.30;;;;;;5072372;28;20463;-69
2024/02/25 09:19:59;;;;;;;3.37;1.60;;;23.00;29.40;;;;;;5072205;28;20471;-70
2024/02/25 09:22:26;;;;;;;4.00;1.77;;;23.30;28.20;;;;;;5072461;28;20463;-70
2024/02/25 09:24:56;;;;;;;3.07;1.47;;;23.60;28.00;;;;;;5071986;28;20515;-69
2024/02/25 09:27:23;;;;;;;3.13;1.70;;;23.90;27.40;;;;;;5072283;28;20456;-70
2024/02/25 09:29:51;;;;;;;3.87;2.33;;;24.10;26.40;;;;;;5072022;28;20432;-69
2024/02/25 09:32:18;;;;;;;2.93;1.43;;;24.30;26.60;;;;;;5071889;28;20434;-70
2024/02/25 09:34:45;;;;;;;2.70;1.20;;;24.60;26.40;;;;;;5071753;28;20428;-70
2024/02/25 09:37:13;;;;;;;2.33;1.23;;;24.70;26.20;;;;;;5072282;28;20486;-70
2024/02/25 09:39:40;;;;;;;2.77;1.40;;;24.90;24.90;;;;;;5072088;28;20475;-70
2024/02/25 09:42:08;;;;;;;6.63;1.63;;;24.90;25.00;;;;;;5073619;28;20554;-70
2024/02/25 09:44:35;;;;;;;2.80;1.10;;;24.90;24.60;;;;;;5075487;28;20507;-70
2024/02/25 09:47:07;;;;;;;2.40;1.07;;;25.00;24.70;;;;;;5074814;28;20668;-68
2024/02/25 09:49:36;;;;;;;2.93;1.50;;;25.30;24.50;;;;;;5075677;28;20435;-69
2024/02/25 09:52:04;;;;;;;4.20;1.40;;;25.50;23.90;;;;;;5075605;28;20497;-70
2024/02/25 09:54:31;;;;;;;3.27;2.00;;;25.80;24.10;;;;;;5075652;28;20436;-69
2024/02/25 09:56:57;;;;;;;3.77;2.20;;;26.10;25.10;;;;;;5075099;28;20489;-68
2024/02/25 09:59:26;;;;;;;2.37;0.90;;;26.30;24.20;;;;;;5075214;28;20561;-71
2024/02/25 10:01:53;;;;;;;2.40;0.90;;;26.60;23.40;;;;;;5074199;28;20436;-70
2024/02/25 10:04:25;;;;;;;1.90;0.70;;;26.70;21.50;;;;;;5074642;28;20439;-69
2024/02/25 10:06:52;;;;;;;2.00;0.70;;;26.60;21.20;;;;;;5074910;28;20424;-69
2024/02/25 10:09:28;;;;;;;1.90;0.67;;;26.60;21.10;;;;;;5074713;28;20505;-68
2024/02/25 10:11:55;;;;;;;2.00;0.60;;;26.80;20.90;;;;;;5075575;28;20426;-69
2024/02/25 10:14:23;;;;;;;1.90;0.60;;;26.80;20.20;;;;;;5075212;28;20459;-68
2024/02/25 10:17:01;;;;;;;1.90;0.70;;;26.60;20.20;;;;;;5075222;28;20432;-69
2024/02/25 10:19:30;;;;;;;1.93;0.70;;;26.50;20.30;;;;;;5074638;28;20466;-68
2024/02/25 10:22:15;;;;;;;1.90;0.70;;;26.50;20.30;;;;;;5074781;28;20437;-68
2024/02/25 10:24:43;;;;;;;2.50;0.90;;;26.40;20.20;;;;;;5075318;28;20511;-69
2024/02/25 10:27:11;;;;;;;2.50;1.00;;;26.40;20.20;;;;;;5074862;28;20950;-69
2024/02/25 10:29:51;;;;;;;2.40;1.33;;;26.30;20.10;;;;;;5075017;28;20448;-68
2024/02/25 10:32:25;;;;;;;4.10;0.80;;;26.30;20.60;;;;;;5074837;28;20424;-68
2024/02/25 10:34:56;;;;;;;2.63;0.80;;;26.40;20.10;;;;;;5075016;28;20986;-69
2024/02/25 10:37:24;;;;;;;2.97;1.10;;;26.50;20.50;;;;;;5074610;28;20915;-68
2024/02/25 10:39:53;;;;;;;2.00;0.70;;;26.60;20.40;;;;;;5074496;28;20557;-68
2024/02/25 10:42:24;;;;;;;2.57;1.10;;;26.70;19.70;;;;;;5074539;28;20550;-68
2024/02/25 10:44:53;;;;;;;2.27;0.70;;;26.70;19.80;;;;;;5074026;28;20431;-69
2024/02/25 10:47:23;;;;;;;2.53;0.97;;;26.70;19.50;;;;;;5074273;28;20439;-68
2024/02/25 10:49:51;;;;;;;2.50;0.80;;;26.70;19.10;;;;;;5073626;28;20942;-68
2024/02/25 10:52:20;;;;;;;3.43;1.00;;;26.80;19.60;;;;;;5074372;28;20447;-69
2024/02/25 10:54:49;;;;;;;2.40;0.80;;;27.10;20.30;;;;;;5074199;28;20494;-70
2024/02/25 10:57:18;;;;;;;2.40;0.70;;;27.20;19.90;;;;;;5074134;28;20919;-69
2024/02/25 10:59:47;;;;;;;2.07;0.67;;;27.30;19.60;;;;;;5073773;28;20471;-68
2024/02/25 11:02:16;;;;;;;2.10;0.90;;;27.40;18.90;;;;;;5074381;28;20532;-68
2024/02/25 11:04:45;;;;;;;2.63;0.77;;;27.40;19.30;;;;;;5074400;28;20428;-68
2024/02/25 11:07:11;;;;;;;2.47;0.73;;;27.60;18.70;;;;;;5074092;28;20515;-69
2024/02/25 11:09:40;;;;;;;2.40;1.00;;;27.70;18.30;;;;;;5073742;28;20835;-69
2024/02/25 11:12:21;;;;;;;6.07;1.10;;;27.70;18.60;;;;;;5074135;28;20432;-70
2024/02/25 11:14:49;;;;;;;3.17;0.80;;;27.70;18.40;;;;;;5073552;28;20424;-69
2024/02/25 11:17:17;;;;;;;2.20;0.73;;;27.80;18.50;;;;;;5074041;28;20522;-69
2024/02/25 11:19:56;;;;;;;2.20;0.77;;;27.70;18.70;;;;;;5073798;28;20521;-69
2024/02/25 11:22:41;;;;;;;2.30;0.80;;;27.70;19.10;;;;;;5073122;28;20828;-68
2024/02/25 11:25:37;;;;;;;2.10;0.70;;;27.90;19.40;;;;;;5073600;28;20424;-68
2024/02/25 11:28:05;;;;;;;2.40;0.73;;;28.30;19.70;;;;;;5073923;28;20813;-70
2024/02/25 11:30:36;;;;;;;2.13;0.80;;;28.50;18.90;;;;;;5073441;28;20439;-68
2024/02/25 11:33:37;;;;;;;3.07;0.90;;;28.70;18.00;;;;;;5073074;28;20527;-69
2024/02/25 11:36:08;;;;;;;2.00;0.80;;;28.60;17.50;;;;;;5073588;28;20428;-68
2024/02/25 11:38:35;;;;;;;3.00;0.70;;;28.70;16.20;;;;;;5070626;28;20434;-68
2024/02/25 11:41:04;;;;;;;2.23;0.77;;;28.60;17.10;;;;;;5072685;28;20448;-68
2024/02/25 11:43:32;;;;;;;2.47;0.80;;;28.60;17.50;;;;;;5073044;28;20464;-68
2024/02/25 11:45:59;;;;;;;2.40;0.90;;;28.50;17.10;;;;;;5071269;28;20440;-68
2024/02/25 11:48:30;;;;;;;2.53;0.60;;;28.60;17.50;;;;;;5073049;28;20428;-68
2024/02/25 11:50:58;;;;;;;1.90;0.70;;;28.60;17.30;;;;;;5073631;28;20490;-68
2024/02/25 11:53:26;;;;;;;3.43;0.90;;;28.60;17.00;;;;;;5073316;28;20428;-69
2024/02/25 11:55:53;;;;;;;2.17;0.90;;;28.70;17.50;;;;;;5073181;28;20789;-68
2024/02/25 11:58:23;;;;;;;1.90;0.70;;;28.70;17.10;;;;;;5073056;28;20431;-69
2024/02/25 12:00:51;;;;;;;2.13;0.67;;;28.90;17.40;;;;;;5073095;28;20575;-69
2024/02/25 12:03:18;;;;;;;2.40;0.80;;;29.00;17.00;;;;;;5073238;28;20436;-69
2024/02/25 12:05:45;;;;;;;3.13;1.00;;;29.10;16.30;;;;;;5072439;28;20474;-69
2024/02/25 12:08:14;;;;;;;2.07;0.70;;;29.10;16.00;;;;;;5073228;28;20444;-69
2024/02/25 12:10:41;;;;;;;2.00;0.60;;;29.00;17.00;;;;;;5072554;28;20966;-69
2024/02/25 12:13:09;;;;;;;2.30;0.70;;;29.00;16.40;;;;;;5072918;28;20436;-69
2024/02/25 12:15:42;;;;;;;2.27;0.80;;;29.00;15.70;;;;;;5072754;28;20515;-69
2024/02/25 12:18:10;;;;;;;1.90;0.70;;;28.90;16.60;;;;;;5073146;28;20416;-69
2024/02/25 12:20:38;;;;;;;2.53;0.90;;;28.80;17.20;;;;;;5072583;28;20467;-69
2024/02/25 12:23:08;;;;;;;2.10;0.60;;;28.80;17.20;;;;;;5072638;28;20432;-69
2024/02/25 12:25:35;;;;;;;2.30;0.70;;;28.80;17.20;;;;;;5072513;28;20834;-68
2024/02/25 12:28:10;;;;;;;2.50;1.13;;;28.70;17.10;;;;;;5073014;28;20432;-69
2024/02/25 12:30:39;;;;;;;2.10;1.10;;;28.80;16.90;;;;;;5072565;28;20464;-68
2024/02/25 12:33:08;;;;;;;2.87;0.93;;;28.80;17.20;;;;;;5072535;28;20428;-69
2024/02/25 12:35:36;;;;;;;2.13;0.77;;;28.80;17.60;;;;;;5072728;28;20910;-69
2024/02/25 12:38:03;;;;;;;2.17;0.80;;;28.80;17.20;;;;;;5071625;28;20482;-69
2024/02/25 12:40:32;;;;;;;2.27;1.00;;;28.80;16.90;;;;;;5072585;28;20440;-69
2024/02/25 12:42:59;;;;;;;7.10;6.33;;;28.90;16.80;;;;;;5072242;28;21047;-69
2024/02/25 12:45:26;;;;;;;4.50;2.83;;;28.80;16.60;;;;;;5072206;28;20428;-69
2024/02/25 12:47:56;;;;;;;3.30;1.20;;;28.80;17.10;;;;;;5072730;28;20459;-69
2024/02/25 12:50:23;;;;;;;4.00;3.17;;;28.80;17.30;;;;;;5072613;28;20497;-69
2024/02/25 12:52:50;;;;;;;3.30;1.90;;;28.70;16.40;;;;;;5072218;28;20460;-68
2024/02/25 12:55:17;;;;;;;2.30;1.10;;;28.50;16.60;;;;;;5072492;28;20451;-68
2024/02/25 12:57:45;;;;;;;6.63;4.30;;;28.30;17.20;;;;;;5072475;28;20440;-68